createdAt,value
2018-09-04T00:01:40.137Z,99.90
2018-09-04T00:04:07.934Z,99.90
2018-09-04T00:06:35.663Z,99.90
2018-09-04T00:09:03.406Z,99.90
2018-09-04T00:11:31.077Z,99.90
2018-09-04T00:13:58.822Z,99.90
2018-09-04T00:16:26.646Z,99.90
2018-09-04T00:18:54.312Z,99.90
2018-09-04T00:21:21.950Z,99.90
2018-09-04T00:23:49.612Z,99.90
2018-09-04T00:26:17.389Z,99.90
2018-09-04T00:28:45.154Z,99.90
2018-09-04T00:31:12.799Z,99.90
2018-09-04T00:33:40.429Z,99.90
2018-09-04T00:36:08.637Z,99.90
2018-09-04T00:38:36.295Z,99.90
2018-09-04T00:41:04.008Z,99.90
2018-09-04T00:43:31.750Z,99.90
2018-09-04T00:45:59.489Z,99.90
2018-09-04T00:48:27.184Z,99.90
2018-09-04T00:50:54.831Z,99.90
2018-09-04T00:53:22.506Z,99.90
2018-09-04T00:55:50.154Z,99.90
2018-09-04T00:58:17.858Z,99.90
2018-09-04T01:00:47.514Z,99.90
2018-09-04T01:03:15.219Z,99.90
2018-09-04T01:05:43.011Z,99.90
2018-09-04T01:08:10.681Z,99.90
2018-09-04T01:10:38.353Z,99.90
2018-09-04T01:13:05.989Z,99.90
2018-09-04T01:15:33.663Z,99.90
2018-09-04T01:18:01.445Z,99.90
2018-09-04T01:20:29.157Z,99.90
2018-09-04T01:22:56.819Z,99.90
2018-09-04T01:25:24.530Z,99.90
2018-09-04T01:27:52.181Z,99.90
2018-09-04T01:30:19.919Z,99.90
2018-09-04T01:32:47.680Z,99.90
2018-09-04T01:35:15.370Z,99.90
2018-09-04T01:37:42.996Z,99.90
2018-09-04T01:40:10.706Z,99.90
2018-09-04T01:42:38.423Z,99.90
2018-09-04T01:45:06.162Z,99.90
2018-09-04T01:47:33.872Z,99.90
2018-09-04T01:50:01.536Z,99.90
2018-09-04T01:52:29.192Z,99.90
2018-09-04T01:54:56.943Z,99.90
2018-09-04T01:57:24.579Z,99.90
2018-09-04T01:59:52.228Z,99.90
2018-09-04T02:02:20.009Z,99.90
2018-09-04T02:04:47.694Z,99.90
2018-09-04T02:07:15.339Z,99.90
2018-09-04T02:09:43.056Z,99.90
2018-09-04T02:12:10.793Z,99.90
2018-09-04T02:14:38.454Z,99.90
2018-09-04T02:17:06.193Z,99.90
2018-09-04T02:19:33.854Z,99.90
2018-09-04T02:22:01.557Z,99.90
2018-09-04T02:24:29.153Z,99.90
2018-09-04T02:26:56.838Z,99.90
2018-09-04T02:29:24.588Z,99.90
2018-09-04T02:31:52.210Z,99.90
2018-09-04T02:34:19.903Z,99.90
2018-09-04T02:36:47.611Z,99.90
2018-09-04T02:39:15.255Z,99.90
2018-09-04T02:41:42.922Z,99.90
2018-09-04T02:44:10.650Z,99.90
2018-09-04T02:46:38.583Z,99.90
2018-09-04T02:49:06.749Z,99.90
2018-09-04T02:51:34.507Z,99.90
2018-09-04T02:54:02.125Z,99.90
2018-09-04T02:56:29.816Z,99.90
2018-09-04T02:58:57.430Z,99.90
2018-09-04T03:01:25.084Z,99.90
2018-09-04T03:03:52.798Z,99.90
2018-09-04T03:06:20.466Z,99.90
2018-09-04T03:08:48.165Z,99.90
2018-09-04T03:11:15.839Z,99.90
2018-09-04T03:13:43.622Z,99.90
2018-09-04T03:16:11.242Z,99.90
2018-09-04T03:18:38.977Z,99.90
2018-09-04T03:21:06.652Z,99.90
2018-09-04T03:23:34.322Z,99.90
2018-09-04T03:26:01.991Z,99.90
2018-09-04T03:28:29.658Z,99.90
2018-09-04T03:30:57.279Z,99.90
2018-09-04T03:33:24.908Z,99.90
2018-09-04T03:35:52.600Z,99.90
2018-09-04T03:38:20.234Z,99.90
2018-09-04T03:40:47.941Z,99.90
2018-09-04T03:43:15.676Z,99.90
2018-09-04T03:45:43.367Z,99.90
2018-09-04T03:48:11.120Z,99.90
2018-09-04T03:50:39.714Z,99.90
2018-09-04T03:53:07.446Z,99.90
2018-09-04T03:55:35.133Z,99.90
2018-09-04T03:58:02.825Z,99.90
2018-09-04T04:00:30.456Z,99.90
2018-09-04T04:02:58.086Z,99.90
2018-09-04T04:05:25.702Z,99.90
2018-09-04T04:07:53.413Z,99.90
2018-09-04T04:10:27.042Z,99.90
2018-09-04T04:12:54.718Z,99.90
2018-09-04T04:15:22.333Z,99.90
2018-09-04T04:17:49.952Z,99.90
2018-09-04T04:20:17.695Z,99.90
2018-09-04T04:22:45.690Z,99.90
2018-09-04T04:25:13.348Z,99.90
2018-09-04T04:27:40.974Z,99.90
2018-09-04T04:30:08.710Z,99.90
2018-09-04T04:32:36.519Z,99.90
2018-09-04T04:35:06.541Z,99.90
2018-09-04T04:52:25.609Z,99.90
2018-09-04T04:54:53.341Z,99.90
2018-09-04T04:57:21.033Z,99.90
2018-09-04T04:59:48.707Z,99.90
2018-09-04T05:02:16.380Z,99.90
2018-09-04T05:04:44.094Z,99.90
2018-09-04T05:07:11.765Z,99.90
2018-09-04T05:09:39.442Z,99.90
2018-09-04T05:12:08.219Z,99.90
2018-09-04T05:14:35.919Z,99.90
2018-09-04T05:17:03.782Z,99.90
2018-09-04T05:19:31.686Z,99.90
2018-09-04T05:21:59.430Z,99.90
2018-09-04T05:24:27.169Z,99.90
2018-09-04T05:26:54.933Z,99.90
2018-09-04T05:29:28.128Z,99.90
2018-09-04T05:32:01.859Z,99.90
2018-09-04T05:34:29.581Z,99.90
2018-09-04T05:36:57.331Z,99.90
2018-09-04T05:39:25.036Z,99.90
2018-09-04T05:41:52.706Z,99.90
2018-09-04T05:44:20.382Z,99.90
2018-09-04T05:46:50.268Z,99.90
2018-09-04T05:49:21.413Z,99.90
2018-09-04T05:51:49.115Z,99.90
2018-09-04T05:54:16.881Z,99.90
2018-09-04T05:56:44.617Z,99.90
2018-09-04T05:59:12.293Z,99.90
2018-09-04T06:01:39.968Z,99.90
2018-09-04T06:04:07.718Z,99.90
2018-09-04T06:06:35.484Z,99.90
2018-09-04T06:09:03.151Z,99.90
2018-09-04T06:11:34.155Z,99.90
2018-09-04T06:14:01.812Z,99.90
2018-09-04T06:16:29.466Z,99.90
2018-09-04T06:18:57.200Z,99.90
2018-09-04T06:21:24.890Z,99.90
2018-09-04T06:23:52.553Z,99.90
2018-09-04T06:26:20.354Z,99.90
2018-09-04T06:28:49.241Z,99.90
2018-09-04T06:31:16.972Z,99.90
2018-09-04T06:33:44.614Z,99.90
2018-09-04T06:36:12.732Z,99.90
2018-09-04T06:38:40.473Z,99.90
2018-09-04T06:41:08.124Z,99.90
2018-09-04T06:43:36.822Z,99.90
2018-09-04T06:46:04.582Z,99.90
2018-09-04T06:48:32.321Z,99.90
2018-09-04T06:51:00.045Z,99.90
2018-09-04T06:53:27.681Z,99.90
2018-09-04T06:55:55.427Z,99.90
2018-09-04T06:58:23.121Z,99.90
2018-09-04T07:00:50.879Z,99.90
2018-09-04T07:03:24.207Z,99.90
2018-09-04T07:05:51.981Z,99.90
2018-09-04T07:08:19.585Z,99.90
2018-09-04T07:10:47.294Z,99.90
2018-09-04T07:13:15.259Z,99.90
2018-09-04T07:15:42.917Z,99.90
2018-09-04T07:18:20.718Z,99.90
2018-09-04T07:20:48.668Z,99.90
2018-09-04T07:23:16.470Z,99.90
2018-09-04T07:25:44.159Z,99.90
2018-09-04T07:28:11.877Z,99.90
2018-09-04T07:30:39.561Z,99.90
2018-09-04T07:33:07.244Z,99.90
2018-09-04T07:35:34.897Z,99.90
2018-09-04T07:38:03.249Z,99.90
2018-09-04T07:40:30.991Z,99.90
2018-09-04T07:42:58.659Z,99.90
2018-09-04T07:45:26.358Z,99.90
2018-09-04T07:47:54.071Z,99.90
2018-09-04T07:50:21.847Z,99.90
2018-09-04T07:52:49.498Z,99.90
2018-09-04T07:55:17.171Z,99.90
2018-09-04T07:57:45.062Z,99.90
2018-09-04T08:00:13.381Z,99.90
2018-09-04T08:02:41.010Z,99.90
2018-09-04T08:05:08.702Z,99.90
2018-09-04T08:07:36.542Z,99.90
2018-09-04T08:10:04.427Z,99.90
2018-09-04T08:12:32.397Z,99.90
2018-09-04T08:15:00.419Z,99.90
2018-09-04T08:17:29.062Z,99.90
2018-09-04T08:19:57.068Z,99.90
2018-09-04T08:22:24.934Z,99.90
2018-09-04T08:24:52.907Z,99.90
2018-09-04T08:27:20.672Z,99.90
2018-09-04T08:29:48.517Z,99.90
2018-09-04T08:32:16.544Z,99.90
2018-09-04T08:34:46.747Z,99.90
2018-09-04T08:37:14.759Z,99.90
2018-09-04T08:39:42.890Z,99.90
2018-09-04T08:42:10.897Z,99.90
2018-09-04T08:44:38.907Z,99.90
2018-09-04T08:47:06.829Z,99.90
2018-09-04T08:49:34.759Z,99.90
2018-09-04T08:52:04.252Z,99.90
2018-09-04T08:54:32.900Z,99.90
2018-09-04T08:57:01.288Z,99.90
2018-09-04T08:59:30.448Z,99.90
2018-09-04T09:01:58.249Z,99.90
2018-09-04T09:04:25.940Z,99.90
2018-09-04T09:06:53.639Z,99.90
2018-09-04T09:09:21.355Z,99.90
2018-09-04T09:11:49.003Z,99.90
2018-09-04T09:14:16.779Z,99.90
2018-09-04T09:16:44.657Z,99.90
2018-09-04T09:19:12.399Z,99.90
2018-09-04T09:21:40.213Z,99.90
2018-09-04T09:24:07.968Z,99.90
2018-09-04T09:26:35.658Z,99.90
2018-09-04T09:29:03.298Z,99.90
2018-09-04T09:31:31.037Z,99.90
2018-09-04T09:33:58.650Z,99.90
2018-09-04T09:36:26.321Z,99.90
2018-09-04T09:38:54.615Z,99.90
2018-09-04T09:41:22.306Z,99.90
2018-09-04T09:43:53.654Z,99.90
2018-09-04T09:46:21.355Z,99.90
2018-09-04T09:48:48.963Z,99.90
2018-09-04T09:51:16.580Z,99.90
2018-09-04T09:53:44.258Z,99.90
2018-09-04T09:56:12.063Z,99.90
2018-09-04T09:58:40.334Z,99.90
2018-09-04T10:01:13.265Z,99.90
2018-09-04T10:03:46.393Z,99.90
2018-09-04T10:06:16.461Z,99.90
2018-09-04T10:08:44.115Z,99.90
2018-09-04T10:11:11.773Z,99.90
2018-09-04T10:13:39.504Z,99.90
2018-09-04T10:16:08.247Z,99.90
2018-09-04T10:18:35.976Z,99.90
2018-09-04T10:21:03.686Z,99.90
2018-09-04T10:23:31.417Z,99.80
2018-09-04T10:25:59.376Z,99.20
2018-09-04T10:28:27.162Z,99.20
2018-09-04T10:30:54.869Z,98.50
2018-09-04T10:33:22.597Z,98.50
2018-09-04T10:35:50.267Z,97.40
2018-09-04T10:38:17.720Z,97.50
2018-09-04T10:40:46.293Z,97.00
2018-09-04T10:43:13.785Z,97.70
2018-09-04T10:45:46.580Z,96.80
2018-09-04T10:48:15.072Z,97.10
2018-09-04T10:50:42.502Z,97.10
2018-09-04T10:53:09.976Z,97.10
2018-09-04T10:55:37.594Z,96.70
2018-09-04T10:58:05.634Z,96.90
2018-09-04T11:00:33.148Z,96.70
2018-09-04T11:03:00.725Z,96.40
2018-09-04T11:05:28.169Z,95.80
2018-09-04T11:07:55.605Z,96.40
2018-09-04T11:10:23.059Z,96.30
2018-09-04T11:12:50.648Z,95.90
2018-09-04T11:15:18.110Z,95.30
2018-09-04T11:17:45.530Z,95.40
2018-09-04T11:20:14.032Z,94.60
2018-09-04T11:22:41.519Z,94.90
2018-09-04T11:25:08.988Z,94.60
2018-09-04T11:27:36.566Z,94.30
2018-09-04T11:30:04.485Z,93.90
2018-09-04T11:32:31.925Z,93.70
2018-09-04T11:34:59.396Z,93.40
2018-09-04T11:37:26.841Z,93.90
2018-09-04T11:39:54.735Z,93.70
2018-09-04T11:42:22.447Z,93.80
2018-09-04T11:44:50.130Z,93.60
2018-09-04T11:47:17.920Z,93.70
2018-09-04T11:49:45.612Z,93.70
2018-09-04T11:52:13.380Z,94.10
2018-09-04T11:54:41.036Z,94.10
2018-09-04T11:57:08.658Z,93.80
2018-09-04T11:59:39.682Z,93.60
2018-09-04T12:02:10.309Z,92.50
2018-09-04T12:04:37.899Z,92.70
2018-09-04T12:07:05.545Z,93.00
2018-09-04T12:09:33.190Z,92.30
2018-09-04T12:12:00.847Z,91.50
2018-09-04T12:14:33.867Z,90.90
2018-09-04T12:17:01.641Z,91.60
2018-09-04T12:19:33.860Z,91.30
2018-09-04T12:22:01.480Z,91.20
2018-09-04T12:24:29.101Z,90.50
2018-09-04T12:26:56.701Z,89.20
2018-09-04T12:29:24.353Z,88.30
2018-09-04T12:31:51.962Z,85.30
2018-09-04T12:34:20.615Z,84.50
2018-09-04T12:36:48.217Z,84.60
2018-09-04T12:39:15.852Z,82.80
2018-09-04T12:41:43.496Z,84.10
2018-09-04T12:44:11.292Z,84.20
2018-09-04T12:46:38.952Z,85.00
2018-09-04T12:49:06.624Z,86.10
2018-09-04T12:51:34.249Z,85.70
2018-09-04T12:54:01.893Z,87.10
2018-09-04T12:56:29.567Z,88.60
2018-09-04T12:58:57.247Z,90.30
2018-09-04T13:01:24.885Z,89.40
2018-09-04T13:03:52.490Z,89.30
2018-09-04T13:06:26.281Z,89.70
2018-09-04T13:08:53.918Z,90.60
2018-09-04T13:11:21.546Z,90.20
2018-09-04T13:13:49.166Z,90.70
2018-09-04T13:16:16.866Z,91.40
2018-09-04T13:18:44.593Z,91.40
2018-09-04T13:21:20.487Z,91.40
2018-09-04T13:23:48.123Z,92.20
2018-09-04T13:26:15.724Z,92.80
2018-09-04T13:28:43.404Z,93.20
2018-09-04T13:31:11.158Z,93.40
2018-09-04T13:33:38.817Z,93.90
2018-09-04T13:36:06.479Z,94.40
2018-09-04T13:38:46.011Z,94.60
2018-09-04T13:41:13.652Z,94.90
2018-09-04T13:43:41.240Z,95.50
2018-09-04T13:46:08.927Z,95.80
2018-09-04T13:48:36.580Z,95.70
2018-09-04T13:51:04.200Z,95.80
2018-09-04T13:53:31.879Z,96.80
2018-09-04T13:55:59.922Z,97.10
2018-09-04T13:58:27.517Z,97.40
2018-09-04T14:00:55.546Z,97.30
2018-09-04T14:03:23.289Z,97.30
2018-09-04T14:05:50.969Z,97.50
2018-09-04T14:08:19.144Z,97.60
2018-09-04T14:10:46.834Z,98.00
2018-09-04T14:13:14.786Z,98.50
2018-09-04T14:15:46.231Z,98.50
2018-09-04T14:18:14.426Z,98.50
2018-09-04T14:20:42.052Z,97.80
2018-09-04T14:23:10.045Z,97.70
2018-09-04T14:25:44.010Z,97.90
2018-09-04T14:28:40.966Z,97.60
2018-09-04T14:30:43.018Z,97.70
2018-09-04T14:33:10.694Z,98.10
2018-09-04T14:35:38.343Z,98.10
2018-09-04T14:38:05.966Z,98.30
2018-09-04T14:40:33.689Z,98.30
2018-09-04T14:43:01.446Z,98.40
2018-09-04T14:45:29.071Z,98.30
2018-09-04T14:47:56.765Z,98.20
2018-09-04T14:50:24.325Z,98.40
2018-09-04T14:52:51.951Z,98.80
2018-09-04T14:55:19.600Z,99.20
2018-09-04T14:57:47.350Z,99.60
2018-09-04T15:00:14.929Z,99.80
2018-09-04T15:02:42.589Z,99.80
2018-09-04T15:05:10.249Z,99.90
2018-09-04T15:07:37.886Z,99.80
2018-09-04T15:10:06.015Z,99.70
2018-09-04T15:12:33.701Z,99.90
2018-09-04T15:15:01.391Z,99.90
2018-09-04T15:17:29.011Z,99.90
2018-09-04T15:19:56.609Z,99.90
2018-09-04T15:22:29.268Z,99.90
2018-09-04T15:24:56.929Z,99.90
2018-09-04T15:27:24.618Z,99.90
2018-09-04T15:29:52.263Z,99.90
2018-09-04T15:32:19.996Z,99.90
2018-09-04T15:34:47.614Z,99.90
2018-09-04T15:37:15.258Z,99.90
2018-09-04T15:39:42.940Z,99.90
2018-09-04T15:42:10.834Z,99.90
2018-09-04T15:44:38.778Z,99.90
2018-09-04T15:47:06.558Z,99.90
2018-09-04T15:49:40.484Z,99.90
2018-09-04T15:52:08.203Z,99.90
2018-09-04T15:54:36.050Z,99.90
2018-09-04T15:57:03.954Z,99.90
2018-09-04T15:59:31.733Z,99.90
2018-09-04T16:01:59.854Z,99.90
2018-09-04T16:04:27.782Z,99.90
2018-09-04T16:06:55.736Z,99.90
2018-09-04T16:09:23.849Z,99.90
2018-09-04T16:11:51.733Z,99.90
2018-09-04T16:14:19.741Z,99.90
2018-09-04T16:16:47.734Z,99.90
2018-09-04T16:19:15.702Z,99.90
2018-09-04T16:21:43.626Z,99.90
2018-09-04T16:24:11.370Z,99.90
2018-09-04T16:26:39.496Z,99.90
2018-09-04T16:29:07.254Z,99.90
2018-09-04T16:31:36.012Z,99.90
2018-09-04T16:34:04.819Z,99.90
2018-09-04T16:36:32.686Z,99.90
2018-09-04T16:39:00.618Z,99.90
2018-09-04T16:41:28.619Z,99.90
2018-09-04T16:43:56.188Z,99.90
2018-09-04T16:46:23.936Z,99.90
2018-09-04T22:37:21.692Z,99.90
2018-09-04T22:39:49.292Z,99.90
2018-09-04T22:42:18.381Z,99.90
2018-09-04T22:44:48.264Z,99.90
2018-09-04T22:47:17.463Z,99.90
2018-09-04T22:49:50.829Z,99.90
2018-09-04T22:52:24.803Z,99.90
2018-09-04T22:54:56.446Z,99.90
2018-09-04T22:57:24.438Z,99.90
2018-09-04T22:59:52.489Z,99.90
2018-09-04T23:02:20.456Z,99.90
2018-09-04T23:04:49.090Z,99.90
2018-09-04T23:07:17.693Z,99.90
2018-09-04T23:09:45.640Z,99.90
2018-09-04T23:12:14.137Z,99.90
2018-09-04T23:14:42.401Z,99.90
2018-09-04T23:17:10.723Z,99.90
2018-09-04T23:19:39.010Z,99.90
2018-09-04T23:22:06.907Z,99.90
2018-09-04T23:24:36.002Z,99.90
2018-09-04T23:27:04.314Z,99.90
2018-09-04T23:29:32.360Z,99.90
2018-09-04T23:32:00.346Z,99.90
2018-09-04T23:34:28.210Z,99.90
2018-09-04T23:36:56.112Z,99.90
2018-09-04T23:42:22.289Z,99.90
2018-09-04T23:44:49.945Z,99.90
2018-09-04T23:47:17.791Z,99.90
2018-09-04T23:49:45.595Z,99.90
2018-09-04T23:52:13.513Z,99.90
2018-09-04T23:54:41.357Z,99.90
2018-09-04T23:57:09.558Z,99.90
2018-09-04T23:59:37.380Z,99.90
